createdAt,value
2017-09-12T00:01:34.849Z,11.20
2017-09-12T00:04:39.865Z,11.20
2017-09-12T00:07:46.432Z,11.30
2017-09-12T00:10:51.796Z,11.40
2017-09-12T00:13:56.755Z,11.50
2017-09-12T00:17:01.785Z,11.60
2017-09-12T00:20:06.637Z,11.60
2017-09-12T00:23:11.657Z,11.60
2017-09-12T00:26:17.079Z,11.60
2017-09-12T00:29:22.095Z,11.50
2017-09-12T00:32:27.469Z,11.50
2017-09-12T00:35:32.694Z,11.40
2017-09-12T00:38:38.068Z,11.30
2017-09-12T00:41:44.607Z,11.30
2017-09-12T00:44:50.132Z,11.20
2017-09-12T00:47:54.972Z,11.10
2017-09-12T00:50:59.764Z,11.10
2017-09-12T00:54:05.172Z,11.10
2017-09-12T00:57:10.716Z,11.10
2017-09-12T01:00:15.644Z,11.20
2017-09-12T01:03:20.820Z,11.40
2017-09-12T01:06:25.965Z,11.60
2017-09-12T01:09:31.069Z,11.70
2017-09-12T01:12:36.507Z,11.80
2017-09-12T01:15:42.133Z,11.90
2017-09-12T01:18:47.780Z,12.00
2017-09-12T01:21:53.196Z,12.00
2017-09-12T01:24:58.825Z,12.00
2017-09-12T01:28:04.383Z,12.00
2017-09-12T01:31:09.348Z,12.00
2017-09-12T01:34:15.657Z,12.10
2017-09-12T01:37:21.161Z,12.10
2017-09-12T01:40:26.915Z,12.10
2017-09-12T01:43:32.495Z,12.10
2017-09-12T01:46:37.546Z,12.20
2017-09-12T01:49:43.184Z,12.10
2017-09-12T01:52:48.945Z,12.10
2017-09-12T01:55:54.556Z,12.10
2017-09-12T01:59:00.088Z,12.10
2017-09-12T02:02:05.669Z,12.00
2017-09-12T02:05:11.876Z,12.00
2017-09-12T02:08:17.436Z,11.90
2017-09-12T02:11:22.705Z,11.90
2017-09-12T02:14:28.249Z,11.90
2017-09-12T02:17:33.904Z,11.70
2017-09-12T02:20:39.342Z,11.70
2017-09-12T02:23:45.334Z,11.70
2017-09-12T02:26:50.506Z,11.70
2017-09-12T02:29:55.901Z,11.70
2017-09-12T02:33:00.965Z,11.70
2017-09-12T02:36:06.195Z,11.60
2017-09-12T02:39:11.207Z,11.60
2017-09-12T02:42:17.020Z,11.40
2017-09-12T02:45:22.137Z,11.40
2017-09-12T02:48:28.290Z,11.40
2017-09-12T02:51:33.514Z,11.40
2017-09-12T02:54:39.517Z,11.40
2017-09-12T02:57:44.655Z,11.40
2017-09-12T03:00:50.327Z,11.40
2017-09-12T03:03:55.895Z,11.50
2017-09-12T03:07:01.840Z,11.80
2017-09-12T03:10:06.499Z,11.80
2017-09-12T03:13:11.686Z,11.80
2017-09-12T03:16:16.809Z,11.70
2017-09-12T03:19:22.295Z,11.80
2017-09-12T03:22:28.444Z,11.70
2017-09-12T03:25:34.669Z,11.70
2017-09-12T03:28:40.255Z,11.90
2017-09-12T03:31:45.796Z,11.90
2017-09-12T03:34:51.723Z,11.90
2017-09-12T03:37:57.149Z,11.90
2017-09-12T03:41:03.805Z,11.90
2017-09-12T03:44:08.605Z,11.90
2017-09-12T03:47:14.382Z,12.00
2017-09-12T03:50:19.855Z,12.00
2017-09-12T03:53:24.596Z,12.10
2017-09-12T03:56:29.769Z,12.10
2017-09-12T03:59:35.159Z,12.10
2017-09-12T04:02:41.720Z,12.10
2017-09-12T04:05:46.571Z,12.10
2017-09-12T04:08:52.455Z,12.10
2017-09-12T04:11:57.976Z,12.10
2017-09-12T04:15:03.391Z,12.10
2017-09-12T04:18:09.979Z,12.00
2017-09-12T04:21:14.996Z,12.00
2017-09-12T04:24:20.711Z,12.00
2017-09-12T04:27:25.937Z,12.00
2017-09-12T04:30:30.887Z,12.00
2017-09-12T04:33:36.277Z,12.00
2017-09-12T04:36:41.883Z,12.00
2017-09-12T04:39:46.699Z,12.00
2017-09-12T04:42:51.693Z,12.00
2017-09-12T04:45:57.499Z,12.00
2017-09-12T04:49:02.844Z,12.00
2017-09-12T04:52:09.172Z,12.00
2017-09-12T04:55:14.178Z,12.00
2017-09-12T04:58:19.112Z,12.00
2017-09-12T05:01:24.448Z,12.00
2017-09-12T05:04:29.928Z,12.00
2017-09-12T05:07:36.299Z,12.00
2017-09-12T05:10:42.660Z,11.90
2017-09-12T05:13:48.837Z,11.90
2017-09-12T05:16:53.680Z,11.80
2017-09-12T05:19:59.410Z,11.80
2017-09-12T05:23:04.764Z,11.80
2017-09-12T05:26:10.603Z,11.80
2017-09-12T05:29:15.811Z,11.80
2017-09-12T05:32:20.823Z,11.80
2017-09-12T05:35:26.535Z,11.70
2017-09-12T05:38:31.991Z,11.70
2017-09-12T05:41:38.253Z,11.80
2017-09-12T05:44:43.735Z,11.80
2017-09-12T05:47:49.352Z,11.80
2017-09-12T05:50:55.752Z,11.90
2017-09-12T05:54:00.580Z,11.90
2017-09-12T05:57:06.156Z,12.00
2017-09-12T06:00:12.432Z,12.10
2017-09-12T06:03:17.420Z,12.10
2017-09-12T06:06:22.377Z,12.20
2017-09-12T06:09:27.182Z,12.20
2017-09-12T06:12:32.804Z,12.20
2017-09-12T06:15:38.010Z,12.10
2017-09-12T06:18:43.565Z,12.10
2017-09-12T06:21:48.476Z,12.10
2017-09-12T06:24:53.824Z,12.00
2017-09-12T06:27:59.407Z,12.00
2017-09-12T06:31:04.381Z,12.00
2017-09-12T06:34:09.879Z,11.90
2017-09-12T06:37:15.231Z,11.90
2017-09-12T06:40:20.460Z,11.90
2017-09-12T06:43:25.959Z,11.90
2017-09-12T06:46:31.340Z,11.90
2017-09-12T06:49:37.117Z,11.90
2017-09-12T06:52:42.672Z,11.90
2017-09-12T06:55:47.788Z,12.00
2017-09-12T06:58:53.349Z,12.00
2017-09-12T07:01:59.312Z,12.30
2017-09-12T07:05:05.599Z,12.50
2017-09-12T07:08:10.723Z,12.50
2017-09-12T07:11:15.784Z,12.70
2017-09-12T07:14:21.585Z,12.80
2017-09-12T07:17:26.590Z,12.90
2017-09-12T07:20:31.327Z,13.10
2017-09-12T07:23:36.881Z,13.20
2017-09-12T07:26:42.494Z,13.30
2017-09-12T07:29:47.811Z,13.50
2017-09-12T07:32:53.310Z,13.80
2017-09-12T07:35:59.005Z,14.10
2017-09-12T07:39:03.762Z,14.50
2017-09-12T07:42:09.064Z,14.80
2017-09-12T07:45:14.218Z,14.90
2017-09-12T07:48:19.732Z,14.90
2017-09-12T07:51:27.741Z,14.70
2017-09-12T07:54:32.936Z,14.50
2017-09-12T07:57:38.351Z,14.50
2017-09-12T08:00:44.225Z,14.50
2017-09-12T08:03:49.945Z,14.40
2017-09-12T08:06:55.568Z,14.30
2017-09-12T08:10:07.549Z,14.70
2017-09-12T08:13:12.564Z,14.70
2017-09-12T08:16:18.100Z,14.70
2017-09-12T08:19:23.035Z,14.50
2017-09-12T08:22:28.547Z,14.40
2017-09-12T08:25:33.427Z,14.40
2017-09-12T08:28:39.668Z,14.70
2017-09-12T08:31:44.728Z,14.60
2017-09-12T08:34:49.535Z,14.90
2017-09-12T08:37:55.506Z,15.10
2017-09-12T08:41:01.788Z,15.20
2017-09-12T08:44:08.549Z,15.10
2017-09-12T08:47:14.220Z,15.10
2017-09-12T08:50:19.165Z,15.00
2017-09-12T08:53:25.823Z,14.80
2017-09-12T08:56:31.376Z,14.70
2017-09-12T08:59:37.451Z,15.00
2017-09-12T09:02:43.016Z,15.00
2017-09-12T09:05:48.152Z,15.30
2017-09-12T09:08:53.981Z,16.40
2017-09-12T09:11:59.460Z,16.40
2017-09-12T09:15:05.047Z,16.90
2017-09-12T09:18:10.353Z,16.90
2017-09-12T09:21:15.984Z,16.90
2017-09-12T09:24:21.271Z,16.60
2017-09-12T09:27:27.128Z,16.40
2017-09-12T09:30:33.772Z,16.40
2017-09-12T09:33:38.848Z,16.40
2017-09-12T09:36:44.432Z,16.20
2017-09-12T09:39:49.265Z,16.00
2017-09-12T09:42:54.494Z,16.20
2017-09-12T09:45:59.868Z,16.60
2017-09-12T09:49:04.740Z,16.90
2017-09-12T09:52:09.953Z,16.70
2017-09-12T09:55:14.959Z,16.40
2017-09-12T09:58:20.700Z,16.20
2017-09-12T10:01:26.252Z,16.00
2017-09-12T10:04:31.036Z,16.20
2017-09-12T10:07:37.180Z,16.30
2017-09-12T10:10:42.852Z,16.30
2017-09-12T10:13:49.352Z,16.80
2017-09-12T10:16:55.103Z,16.80
2017-09-12T10:20:00.559Z,16.80
2017-09-12T10:23:06.496Z,16.40
2017-09-12T10:26:12.639Z,16.30
2017-09-12T10:29:18.228Z,16.30
2017-09-12T10:32:23.059Z,16.60
2017-09-12T10:35:28.252Z,17.20
2017-09-12T10:38:33.522Z,17.80
2017-09-12T10:41:38.611Z,18.20
2017-09-12T10:44:44.290Z,18.00
2017-09-12T10:47:49.654Z,17.60
2017-09-12T10:50:54.773Z,17.70
2017-09-12T10:54:00.165Z,17.40
2017-09-12T10:57:05.315Z,17.20
2017-09-12T11:00:10.502Z,16.90
2017-09-12T11:03:15.484Z,16.80
2017-09-12T11:06:21.706Z,16.70
2017-09-12T11:09:27.116Z,16.70
2017-09-12T11:12:33.315Z,16.00
2017-09-12T11:15:39.336Z,15.90
2017-09-12T11:18:45.093Z,16.20
2017-09-12T11:21:50.625Z,16.20
2017-09-12T11:24:55.873Z,16.40
2017-09-12T11:28:01.508Z,16.60
2017-09-12T11:31:06.430Z,16.80
2017-09-12T11:34:12.192Z,16.90
2017-09-12T11:37:17.348Z,17.00
2017-09-12T11:40:22.372Z,17.10
2017-09-12T11:43:27.415Z,17.10
2017-09-12T11:46:40.389Z,16.80
2017-09-12T11:49:45.425Z,16.90
2017-09-12T11:52:50.797Z,17.50
2017-09-12T11:55:55.480Z,18.00
2017-09-12T11:59:01.163Z,18.30
2017-09-12T12:02:06.573Z,18.60
2017-09-12T12:05:12.953Z,18.50
2017-09-12T12:08:17.796Z,18.50
2017-09-12T12:11:22.996Z,18.00
2017-09-12T12:14:27.939Z,17.60
2017-09-12T12:17:33.309Z,17.30
2017-09-12T12:20:39.380Z,17.30
2017-09-12T12:23:44.298Z,17.60
2017-09-12T12:26:49.179Z,17.70
2017-09-12T12:29:54.468Z,17.70
2017-09-12T12:32:59.986Z,17.80
2017-09-12T12:36:05.064Z,18.00
2017-09-12T12:39:10.377Z,18.10
2017-09-12T12:42:15.315Z,18.00
2017-09-12T12:45:20.164Z,17.90
2017-09-12T12:48:25.128Z,17.90
2017-09-12T12:51:30.296Z,18.10
2017-09-12T12:54:35.529Z,18.30
2017-09-12T12:57:41.044Z,18.30
2017-09-12T13:00:46.171Z,18.30
2017-09-12T13:03:51.439Z,18.10
2017-09-12T13:06:56.504Z,17.90
2017-09-12T13:10:02.270Z,16.90
2017-09-12T13:13:07.343Z,16.80
2017-09-12T13:16:12.657Z,16.20
2017-09-12T13:19:17.507Z,15.80
2017-09-12T13:22:23.063Z,15.70
2017-09-12T13:25:29.368Z,15.70
2017-09-12T13:28:34.316Z,16.20
2017-09-12T13:31:39.348Z,16.60
2017-09-12T13:34:44.354Z,17.00
2017-09-12T13:37:49.541Z,17.50
2017-09-12T13:40:55.498Z,17.70
2017-09-12T13:44:00.356Z,17.90
2017-09-12T13:47:06.281Z,18.10
2017-09-12T13:50:11.401Z,18.10
2017-09-12T13:53:17.031Z,18.20
2017-09-12T13:56:21.893Z,18.20
2017-09-12T13:59:27.433Z,18.10
2017-09-12T14:02:32.940Z,18.10
2017-09-12T14:05:38.260Z,18.10
2017-09-12T14:08:43.409Z,18.00
2017-09-12T14:11:49.170Z,18.00
2017-09-12T14:14:54.852Z,18.00
2017-09-12T14:17:59.839Z,18.00
2017-09-12T14:21:05.917Z,18.20
2017-09-12T14:24:11.596Z,18.10
2017-09-12T14:27:17.344Z,18.20
2017-09-12T14:30:24.495Z,18.30
2017-09-12T14:33:29.975Z,18.50
2017-09-12T14:36:35.450Z,18.50
2017-09-12T14:39:41.403Z,18.30
2017-09-12T14:42:47.072Z,18.20
2017-09-12T14:45:52.254Z,18.00
2017-09-12T14:48:57.706Z,18.10
2017-09-12T14:52:02.808Z,18.10
2017-09-12T14:55:08.437Z,18.20
2017-09-12T14:58:13.384Z,18.20
2017-09-12T15:01:20.519Z,18.20
2017-09-12T15:04:25.435Z,18.20
2017-09-12T15:07:30.264Z,18.10
2017-09-12T15:10:35.932Z,17.90
2017-09-12T15:13:41.641Z,17.90
2017-09-12T15:16:46.975Z,17.90
2017-09-12T15:19:53.492Z,17.60
2017-09-12T15:22:58.939Z,17.60
2017-09-12T15:26:04.130Z,17.50
2017-09-12T15:29:09.360Z,17.60
2017-09-12T15:32:15.683Z,17.70
2017-09-12T15:35:21.601Z,17.90
2017-09-12T15:38:27.720Z,17.80
2017-09-12T15:41:33.061Z,17.80
2017-09-12T15:44:38.832Z,17.60
2017-09-12T15:47:43.849Z,17.40
2017-09-12T15:50:48.645Z,17.40
2017-09-12T15:53:54.261Z,17.30
2017-09-12T15:56:59.123Z,17.40
2017-09-12T16:00:04.496Z,17.40
2017-09-12T16:03:10.066Z,17.50
2017-09-12T16:06:15.675Z,17.50
2017-09-12T16:09:21.903Z,17.40
2017-09-12T16:12:27.003Z,17.30
2017-09-12T16:15:32.050Z,17.30
2017-09-12T16:18:37.314Z,17.30
2017-09-12T16:21:42.447Z,17.40
2017-09-12T16:24:48.196Z,17.40
2017-09-12T16:27:53.471Z,17.30
2017-09-12T16:31:00.755Z,17.20
2017-09-12T16:34:06.478Z,17.10
2017-09-12T16:37:11.570Z,17.00
2017-09-12T16:40:17.889Z,16.60
2017-09-12T16:43:23.160Z,16.60
2017-09-12T16:49:01.914Z,16.60
2017-09-12T16:52:07.864Z,16.60
2017-09-12T16:55:13.236Z,16.50
2017-09-12T16:58:20.551Z,16.50
2017-09-12T17:01:25.741Z,16.50
2017-09-12T17:04:31.898Z,16.40
2017-09-12T17:07:36.763Z,16.40
2017-09-12T17:10:41.692Z,16.30
2017-09-12T17:13:46.808Z,16.40
2017-09-12T17:16:51.661Z,16.40
2017-09-12T17:19:57.121Z,16.30
2017-09-12T17:23:02.210Z,16.30
2017-09-12T17:26:07.392Z,16.20
2017-09-12T17:29:13.705Z,16.00
2017-09-12T17:32:19.838Z,16.00
2017-09-12T17:35:25.300Z,15.90
2017-09-12T17:38:31.121Z,15.90
2017-09-12T17:41:36.761Z,15.80
2017-09-12T17:44:42.164Z,15.70
2017-09-12T17:47:47.212Z,15.60
2017-09-12T17:50:52.528Z,15.50
2017-09-12T17:53:57.757Z,15.50
2017-09-12T17:57:03.133Z,15.40
2017-09-12T18:00:08.606Z,15.40
2017-09-12T18:03:15.763Z,15.30
2017-09-12T18:06:21.322Z,15.10
2017-09-12T18:09:26.388Z,15.10
2017-09-12T18:12:31.624Z,15.00
2017-09-12T18:15:36.646Z,15.00
2017-09-12T18:18:42.076Z,14.90
2017-09-12T18:21:47.296Z,14.90
2017-09-12T18:24:52.340Z,14.90
2017-09-12T18:27:58.961Z,14.80
2017-09-12T18:31:03.667Z,14.70
2017-09-12T18:34:09.084Z,14.70
2017-09-12T18:37:14.060Z,14.60
2017-09-12T18:40:20.626Z,14.50
2017-09-12T18:43:26.196Z,14.40
2017-09-12T18:46:31.369Z,14.40
2017-09-12T18:49:36.342Z,14.30
2017-09-12T18:52:42.384Z,14.10
2017-09-12T18:55:47.805Z,14.10
2017-09-12T18:58:53.030Z,14.10
2017-09-12T19:01:58.313Z,14.00
2017-09-12T19:05:03.415Z,13.90
2017-09-12T19:08:08.352Z,13.70
2017-09-12T19:11:13.184Z,13.70
2017-09-12T19:14:18.056Z,13.60
2017-09-12T19:17:22.950Z,13.50
2017-09-12T19:20:27.925Z,13.40
2017-09-12T19:23:33.624Z,13.30
2017-09-12T19:26:38.716Z,13.20
2017-09-12T19:29:44.763Z,13.30
2017-09-12T19:32:52.723Z,13.30
2017-09-12T19:35:58.364Z,13.30
2017-09-12T19:39:03.233Z,13.30
2017-09-12T19:42:08.691Z,13.30
2017-09-12T19:45:14.416Z,13.30
2017-09-12T19:48:23.497Z,13.30
2017-09-12T19:51:28.623Z,13.30
2017-09-12T19:54:34.133Z,13.30
2017-09-12T19:57:39.495Z,13.30
2017-09-12T20:00:46.540Z,13.30
2017-09-12T20:03:51.395Z,13.30
2017-09-12T20:06:56.557Z,13.30
2017-09-12T20:10:02.093Z,13.30
2017-09-12T20:13:07.420Z,13.20
2017-09-12T20:16:12.659Z,13.10
2017-09-12T20:19:17.871Z,13.00
2017-09-12T20:22:22.885Z,13.00
2017-09-12T20:25:27.696Z,12.90
2017-09-12T20:28:33.512Z,12.80
2017-09-12T20:31:39.044Z,12.80
2017-09-12T20:34:45.031Z,12.80
2017-09-12T20:37:49.718Z,12.80
2017-09-12T20:40:55.347Z,12.90
2017-09-12T20:44:00.905Z,12.90
2017-09-12T20:47:05.592Z,12.90
2017-09-12T20:50:10.581Z,12.90
2017-09-12T20:53:16.019Z,12.90
2017-09-12T20:56:21.137Z,12.90
2017-09-12T20:59:27.239Z,12.80
2017-09-12T21:02:32.815Z,12.70
2017-09-12T21:05:37.643Z,12.60
2017-09-12T21:08:42.655Z,12.50
2017-09-12T21:11:48.609Z,12.30
2017-09-12T21:14:53.592Z,12.30
2017-09-12T21:17:58.823Z,12.30
2017-09-12T21:21:03.904Z,12.20
2017-09-12T21:24:09.487Z,12.10
2017-09-12T21:27:15.228Z,12.10
2017-09-12T21:30:21.047Z,12.10
2017-09-12T21:33:26.223Z,12.00
2017-09-12T21:36:31.767Z,12.10
2017-09-12T21:39:37.919Z,12.10
2017-09-12T21:42:42.988Z,12.10
2017-09-12T21:45:47.991Z,12.20
2017-09-12T21:48:53.984Z,12.30
2017-09-12T21:51:59.107Z,12.30
2017-09-12T21:55:05.140Z,12.40
2017-09-12T21:58:10.297Z,12.40
2017-09-12T22:01:15.440Z,12.40
2017-09-12T22:04:20.730Z,12.40
2017-09-12T22:07:25.553Z,12.40
2017-09-12T22:10:30.971Z,12.40
2017-09-12T22:13:36.268Z,12.40
2017-09-12T22:16:42.048Z,12.20
2017-09-12T22:19:47.527Z,12.20
2017-09-12T22:22:52.269Z,12.10
2017-09-12T22:25:57.396Z,12.10
2017-09-12T22:29:03.159Z,12.30
2017-09-12T22:32:08.065Z,12.20
2017-09-12T22:35:13.701Z,12.30
2017-09-12T22:38:18.940Z,12.40
2017-09-12T22:41:25.191Z,12.40
2017-09-12T22:44:30.755Z,12.30
2017-09-12T22:47:35.664Z,12.30
2017-09-12T22:50:41.245Z,12.20
2017-09-12T22:53:46.535Z,12.10
2017-09-12T22:56:51.272Z,12.00
2017-09-12T22:59:56.911Z,12.00
2017-09-12T23:03:01.920Z,12.00
2017-09-12T23:06:06.848Z,12.00
2017-09-12T23:09:11.991Z,11.90
2017-09-12T23:12:17.041Z,11.90
2017-09-12T23:15:22.212Z,11.90
2017-09-12T23:18:27.708Z,11.80
2017-09-12T23:21:32.855Z,11.80
2017-09-12T23:24:37.700Z,11.80
2017-09-12T23:27:43.048Z,11.90
2017-09-12T23:30:48.568Z,11.90
2017-09-12T23:33:54.045Z,12.00
2017-09-12T23:36:59.117Z,12.00
2017-09-12T23:40:04.541Z,12.00
2017-09-12T23:43:09.762Z,11.90
2017-09-12T23:46:15.126Z,11.90
2017-09-12T23:49:20.792Z,11.90
2017-09-12T23:52:26.556Z,11.80
2017-09-12T23:55:32.443Z,11.80
2017-09-12T23:58:37.559Z,11.80
